createdAt,value
2024-04-05T00:00:41.135Z,1.40
2024-04-05T00:03:29.568Z,1.60
2024-04-05T00:05:58.989Z,1.90
2024-04-05T00:08:27.672Z,1.50
2024-04-05T00:10:56.183Z,1.70
2024-04-05T00:13:24.984Z,2.00
2024-04-05T00:15:53.819Z,1.00
2024-04-05T00:18:22.456Z,3.60
2024-04-05T00:20:50.918Z,2.00
2024-04-05T00:23:19.415Z,1.90
2024-04-05T00:25:47.921Z,1.30
2024-04-05T00:28:16.423Z,1.60
2024-04-05T00:30:45.085Z,1.40
2024-04-05T00:33:13.578Z,1.80
2024-04-05T00:35:58.181Z,2.30
2024-04-05T00:38:27.395Z,1.80
2024-04-05T00:40:56.366Z,3.20
2024-04-05T00:43:25.088Z,1.10
2024-04-05T00:45:53.809Z,2.20
2024-04-05T00:48:24.138Z,1.00
2024-04-05T00:50:54.661Z,2.90
2024-04-05T00:56:03.335Z,2.80
2024-04-05T00:58:31.978Z,2.20
2024-04-05T01:01:00.488Z,1.10
2024-04-05T01:03:28.950Z,1.00
2024-04-05T01:05:57.627Z,2.70
2024-04-05T01:08:26.143Z,1.50
2024-04-05T01:10:54.611Z,2.50
2024-04-05T01:13:23.170Z,1.80
2024-04-05T01:15:52.173Z,2.30
2024-04-05T01:18:20.663Z,1.50
2024-04-05T01:20:52.186Z,2.50
2024-04-05T01:23:23.699Z,1.50
2024-04-05T01:25:54.116Z,1.80
2024-04-05T01:28:22.626Z,3.20
2024-04-05T01:30:51.120Z,1.60
2024-04-05T01:33:20.774Z,1.40
2024-04-05T01:35:49.275Z,2.50
2024-04-05T01:38:17.771Z,2.10
2024-04-05T01:40:46.249Z,1.30
2024-04-05T01:43:14.736Z,1.80
2024-04-05T01:45:43.574Z,2.00
2024-04-05T01:48:12.245Z,2.60
2024-04-05T01:50:40.702Z,2.00
2024-04-05T01:53:09.255Z,2.10
2024-04-05T01:55:37.730Z,2.60
2024-04-05T01:58:06.190Z,2.40
2024-04-05T02:00:34.643Z,3.00
2024-04-05T02:03:03.142Z,2.20
2024-04-05T02:05:31.668Z,3.50
2024-04-05T02:08:00.153Z,1.40
2024-04-05T02:10:30.095Z,2.60
2024-04-05T02:12:58.557Z,2.50
2024-04-05T02:15:27.014Z,2.40
2024-04-05T02:17:55.458Z,2.80
2024-04-05T02:20:24.001Z,2.10
2024-04-05T02:22:52.464Z,2.00
2024-04-05T02:25:20.955Z,1.70
2024-04-05T02:27:49.587Z,1.40
2024-04-05T02:30:18.046Z,2.60
2024-04-05T02:32:46.598Z,2.50
2024-04-05T02:35:15.138Z,2.50
2024-04-05T02:37:44.208Z,2.50
2024-04-05T02:40:12.697Z,3.90
2024-04-05T02:42:41.184Z,2.20
2024-04-05T02:45:09.890Z,2.20
2024-04-05T02:47:38.409Z,1.90
2024-04-05T02:50:07.716Z,1.60
2024-04-05T02:52:36.255Z,2.70
2024-04-05T02:55:06.164Z,2.30
2024-04-05T02:57:34.710Z,1.80
2024-04-05T03:00:04.171Z,2.00
2024-04-05T03:02:32.672Z,2.60
2024-04-05T03:05:01.174Z,2.70
2024-04-05T03:07:29.641Z,1.80
2024-04-05T03:09:58.103Z,4.00
2024-04-05T03:12:27.165Z,2.00
2024-04-05T03:14:55.619Z,2.20
2024-04-05T03:17:24.219Z,1.40
2024-04-05T03:19:52.704Z,3.60
2024-04-05T03:22:21.163Z,2.10
2024-04-05T03:24:49.697Z,3.70
2024-04-05T03:27:18.168Z,1.80
2024-04-05T03:29:46.765Z,2.90
2024-04-05T03:32:15.587Z,1.00
2024-04-05T03:34:48.135Z,2.80
2024-04-05T03:37:16.624Z,2.40
2024-04-05T03:39:45.292Z,1.70
2024-04-05T03:42:13.780Z,2.50
2024-04-05T03:44:42.298Z,2.30
2024-04-05T03:47:11.348Z,2.10
2024-04-05T03:49:39.946Z,2.50
2024-04-05T03:52:08.781Z,1.70
2024-04-05T03:54:37.595Z,2.20
2024-04-05T03:57:06.321Z,1.50
2024-04-05T03:59:34.935Z,2.20
2024-04-05T04:02:03.422Z,1.60
2024-04-05T04:04:31.910Z,1.90
2024-04-05T04:07:00.379Z,2.30
2024-04-05T04:09:28.965Z,2.40
2024-04-05T04:11:57.441Z,4.20
2024-04-05T04:14:26.088Z,3.30
2024-04-05T04:16:54.559Z,3.20
2024-04-05T04:19:23.087Z,3.20
2024-04-05T04:21:52.367Z,2.20
2024-04-05T04:24:21.439Z,2.80
2024-04-05T04:26:49.994Z,2.50
2024-04-05T04:29:18.540Z,2.00
2024-04-05T04:31:47.561Z,3.20
2024-04-05T04:34:16.150Z,2.60
2024-04-05T04:36:44.937Z,2.60
2024-04-05T04:39:13.468Z,4.70
2024-04-05T04:41:41.917Z,2.80
2024-04-05T04:44:10.779Z,3.50
2024-04-05T04:46:39.323Z,2.70
2024-04-05T04:49:07.788Z,3.90
2024-04-05T04:51:36.247Z,3.40
2024-04-05T04:54:04.914Z,3.00
2024-04-05T04:56:33.428Z,3.60
2024-04-05T04:59:01.921Z,3.50
2024-04-05T05:01:30.433Z,2.60
2024-04-05T05:03:58.951Z,2.80
2024-04-05T05:06:27.432Z,3.80
2024-04-05T05:08:55.939Z,2.10
2024-04-05T05:11:24.405Z,1.70
2024-04-05T05:13:53.106Z,3.70
2024-04-05T05:16:21.599Z,2.10
2024-04-05T05:18:50.129Z,2.90
2024-04-05T05:21:18.615Z,3.70
2024-04-05T05:23:47.091Z,2.10
2024-04-05T05:26:16.374Z,2.20
2024-04-05T05:28:44.993Z,2.40
2024-04-05T05:31:13.514Z,3.00
2024-04-05T05:33:41.980Z,2.40
2024-04-05T05:36:10.527Z,2.10
2024-04-05T05:38:39.617Z,2.60
2024-04-05T05:41:08.155Z,3.00
2024-04-05T05:43:36.690Z,3.10
2024-04-05T05:46:06.227Z,3.00
2024-04-05T05:48:34.792Z,2.80
2024-04-05T05:51:03.337Z,2.30
2024-04-05T05:53:31.800Z,1.50
2024-04-05T05:56:02.478Z,3.90
2024-04-05T05:58:31.507Z,4.80
2024-04-05T06:01:06.231Z,4.00
2024-04-05T06:03:35.036Z,2.80
2024-04-05T06:06:03.615Z,2.20
2024-04-05T06:08:32.110Z,2.10
2024-04-05T06:11:00.768Z,2.60
2024-04-05T06:13:30.409Z,3.40
2024-04-05T06:16:00.508Z,2.60
2024-04-05T06:18:32.176Z,2.80
2024-04-05T06:21:00.846Z,2.40
2024-04-05T06:23:29.382Z,6.10
2024-04-05T06:26:02.104Z,3.00
2024-04-05T06:28:33.882Z,3.30
2024-04-05T06:31:06.165Z,2.60
2024-04-05T06:33:34.682Z,2.20
2024-04-05T06:36:04.613Z,3.10
2024-04-05T06:38:33.126Z,3.80
2024-04-05T06:41:02.672Z,3.40
2024-04-05T06:43:32.195Z,4.20
2024-04-05T06:46:04.921Z,2.60
2024-04-05T06:48:33.707Z,2.30
2024-04-05T06:51:02.240Z,3.80
2024-04-05T06:53:30.818Z,3.40
2024-04-05T06:55:59.293Z,4.00
2024-04-05T06:58:27.768Z,3.80
2024-04-05T07:00:56.295Z,2.50
2024-04-05T07:03:25.038Z,2.00
2024-04-05T07:06:03.906Z,3.90
2024-04-05T07:08:32.902Z,2.80
2024-04-05T07:11:01.524Z,2.20
2024-04-05T07:13:30.824Z,4.50
2024-04-05T07:15:59.774Z,5.10
2024-04-05T07:18:28.311Z,2.60
2024-04-05T07:20:56.787Z,3.80
2024-04-05T07:23:25.285Z,4.20
2024-04-05T07:25:54.188Z,3.90
2024-04-05T07:28:23.147Z,3.90
2024-04-05T07:30:54.481Z,5.70
2024-04-05T07:33:25.022Z,2.40
2024-04-05T07:35:56.348Z,5.00
2024-04-05T07:38:26.435Z,3.20
2024-04-05T07:41:07.693Z,2.70
2024-04-05T07:43:36.182Z,4.70
2024-04-05T07:46:05.626Z,3.00
2024-04-05T07:48:34.192Z,2.90
2024-04-05T07:51:03.550Z,5.40
2024-04-05T07:53:32.124Z,1.70
2024-04-05T07:56:04.148Z,2.30
2024-04-05T07:58:32.697Z,4.30
2024-04-05T08:01:01.684Z,2.30
2024-04-05T08:03:30.205Z,1.90
2024-04-05T08:06:00.737Z,2.30
2024-04-05T08:08:29.437Z,2.30
2024-04-05T08:11:05.051Z,2.70
2024-04-05T08:13:33.627Z,3.20
2024-04-05T08:16:03.320Z,2.60
2024-04-05T08:18:31.878Z,3.20
2024-04-05T08:21:04.001Z,2.90
2024-04-05T08:23:32.642Z,2.40
2024-04-05T08:26:02.635Z,2.80
2024-04-05T08:28:31.282Z,3.20
2024-04-05T08:30:59.790Z,2.90
2024-04-05T08:33:29.315Z,2.50
2024-04-05T08:35:57.794Z,2.80
2024-04-05T08:38:26.420Z,2.60
2024-04-05T08:40:55.826Z,2.30
2024-04-05T08:43:28.967Z,5.70
2024-04-05T08:45:58.210Z,3.00
2024-04-05T08:48:30.228Z,4.10
2024-04-05T08:51:00.226Z,2.70
2024-04-05T08:56:01.461Z,2.40
2024-04-05T08:58:31.680Z,3.30
2024-04-05T09:01:01.811Z,4.40
2024-04-05T09:03:30.281Z,3.60
2024-04-05T09:05:58.787Z,3.70
2024-04-05T09:08:27.822Z,2.20
2024-04-05T09:10:56.818Z,2.40
2024-04-05T09:13:25.593Z,2.10
2024-04-05T09:15:54.888Z,2.70
2024-04-05T09:18:29.651Z,3.80
2024-04-05T09:20:59.177Z,4.50
2024-04-05T09:23:27.648Z,2.80
2024-04-05T09:26:03.920Z,3.80
2024-04-05T09:28:32.381Z,2.60
2024-04-05T09:31:00.982Z,3.10
2024-04-05T09:33:29.495Z,2.60
2024-04-05T09:36:02.718Z,5.00
2024-04-05T09:38:35.926Z,3.70
2024-04-05T09:41:05.757Z,3.60
2024-04-05T09:43:52.359Z,1.70
2024-04-05T09:46:27.696Z,4.10
2024-04-05T09:48:57.763Z,2.80
2024-04-05T09:51:28.280Z,2.30
2024-04-05T09:53:59.669Z,3.50
2024-04-05T09:56:31.674Z,2.70
2024-04-05T09:59:01.124Z,1.90
2024-04-05T10:01:30.537Z,2.70
2024-04-05T10:04:00.526Z,3.40
2024-04-05T10:06:40.270Z,2.30
2024-04-05T10:09:25.221Z,3.40
2024-04-05T10:11:54.409Z,4.10
2024-04-05T10:14:27.568Z,2.30
2024-04-05T10:17:08.189Z,3.30
2024-04-05T10:19:41.532Z,2.30
2024-04-05T10:22:11.467Z,2.40
2024-04-05T10:24:40.533Z,3.40
2024-04-05T10:27:10.302Z,2.30
2024-04-05T10:29:41.423Z,5.20
2024-04-05T10:32:10.467Z,3.90
2024-04-05T10:34:39.857Z,4.30
2024-04-05T10:37:14.640Z,2.20
2024-04-05T10:39:43.121Z,4.00
2024-04-05T10:42:13.035Z,1.50
2024-04-05T10:47:10.233Z,2.80
2024-04-05T10:49:38.762Z,4.20
2024-04-05T10:52:09.320Z,4.20
2024-04-05T10:54:37.946Z,2.10
2024-04-05T10:57:06.952Z,1.70
2024-04-05T10:59:35.533Z,3.10
2024-04-05T11:02:04.188Z,2.10
2024-04-05T11:04:32.698Z,4.00
2024-04-05T11:07:01.812Z,3.80
2024-04-05T11:09:37.476Z,3.30
2024-04-05T11:12:06.366Z,2.80
2024-04-05T11:14:35.033Z,1.80
2024-04-05T11:17:03.690Z,3.00
2024-04-05T11:19:32.880Z,3.30
2024-04-05T11:22:05.196Z,3.10
2024-04-05T11:24:33.688Z,2.10
2024-04-05T11:27:02.173Z,1.80
2024-04-05T11:29:30.664Z,2.80
2024-04-05T11:32:02.359Z,3.30
2024-04-05T11:34:30.854Z,2.80
2024-04-05T11:36:59.320Z,1.90
2024-04-05T11:39:28.363Z,4.20
2024-04-05T11:41:56.832Z,1.60
2024-04-05T11:44:25.403Z,2.20
2024-04-05T11:46:53.986Z,3.10
2024-04-05T11:49:22.596Z,2.40
2024-04-05T11:51:51.031Z,1.60
2024-04-05T11:54:19.485Z,2.90
2024-04-05T11:56:47.969Z,2.10
2024-04-05T11:59:16.542Z,2.80
2024-04-05T12:01:45.035Z,2.10
2024-04-05T12:04:13.498Z,2.20
2024-04-05T12:06:41.960Z,2.50
2024-04-05T12:09:10.488Z,3.70
2024-04-05T12:11:38.962Z,3.60
2024-04-05T12:14:11.097Z,2.00
2024-04-05T12:16:41.752Z,3.00
2024-04-05T12:19:10.315Z,2.30
2024-04-05T12:21:38.804Z,2.10
2024-04-05T12:24:07.424Z,3.10
2024-04-05T12:26:38.036Z,3.20
2024-04-05T12:29:06.941Z,3.60
2024-04-05T12:31:35.495Z,3.80
2024-04-05T12:34:04.521Z,2.00
2024-04-05T12:36:33.878Z,4.30
2024-04-05T12:39:08.606Z,5.90
2024-04-05T12:41:37.064Z,3.40
2024-04-05T12:44:05.732Z,3.20
2024-04-05T12:46:34.387Z,3.00
2024-04-05T12:49:02.900Z,2.40
2024-04-05T12:51:31.362Z,7.40
2024-04-05T12:53:59.827Z,3.80
2024-04-05T12:56:29.246Z,2.90
2024-04-05T12:58:58.701Z,3.30
2024-04-05T13:01:28.325Z,2.70
2024-04-05T13:03:56.859Z,3.60
2024-04-05T13:06:25.375Z,4.80
2024-04-05T13:08:56.090Z,3.00
2024-04-05T13:11:24.559Z,2.90
2024-04-05T13:13:53.067Z,3.40
2024-04-05T13:16:21.581Z,5.00
2024-04-05T13:18:50.784Z,3.10
2024-04-05T13:21:19.349Z,3.10
2024-04-05T13:23:50.900Z,5.00
2024-04-05T13:26:24.009Z,4.30
2024-04-05T13:28:56.516Z,4.70
2024-04-05T13:31:27.965Z,9.30
2024-04-05T13:33:56.467Z,5.80
2024-04-05T13:36:25.412Z,6.20
2024-04-05T13:38:53.919Z,5.80
2024-04-05T13:41:22.387Z,5.00
2024-04-05T13:43:50.888Z,2.60
2024-04-05T13:46:22.603Z,2.70
2024-04-05T13:48:53.359Z,4.00
2024-04-05T13:51:28.096Z,5.50
2024-04-05T13:53:57.348Z,2.70
2024-04-05T13:56:26.204Z,4.00
2024-04-05T13:58:54.711Z,2.40
2024-04-05T14:01:24.541Z,3.10
2024-04-05T14:03:53.585Z,3.00
2024-04-05T14:06:22.043Z,2.70
2024-04-05T14:08:52.322Z,1.90
2024-04-05T14:11:20.838Z,3.30
2024-04-05T14:13:49.340Z,1.70
2024-04-05T14:16:18.737Z,1.90
2024-04-05T14:18:53.413Z,3.60
2024-04-05T14:21:21.902Z,3.60
2024-04-05T14:23:50.810Z,2.70
2024-04-05T14:26:21.854Z,3.60
2024-04-05T14:28:50.539Z,2.50
2024-04-05T14:31:19.001Z,3.00
2024-04-05T14:33:58.294Z,2.70
2024-04-05T14:36:28.669Z,4.80
2024-04-05T14:38:57.236Z,4.50
2024-04-05T14:41:26.211Z,3.40
2024-04-05T14:43:56.146Z,3.30
2024-04-05T14:46:24.635Z,3.40
2024-04-05T14:48:53.109Z,3.00
2024-04-05T14:51:21.573Z,2.60
2024-04-05T14:53:52.359Z,1.80
2024-04-05T14:56:20.853Z,2.40
2024-04-05T14:58:49.542Z,5.40
2024-04-05T15:01:18.026Z,3.10
2024-04-05T15:03:46.497Z,3.30
2024-04-05T15:06:16.998Z,3.60
2024-04-05T15:08:47.593Z,3.50
2024-04-05T15:11:17.533Z,3.80
2024-04-05T15:13:46.227Z,3.00
2024-04-05T15:16:15.094Z,2.80
2024-04-05T15:18:43.942Z,2.10
2024-04-05T15:21:12.486Z,3.50
2024-04-05T15:23:41.654Z,3.30
2024-04-05T15:26:10.263Z,3.30
2024-04-05T15:28:39.227Z,2.50
2024-04-05T15:31:07.835Z,3.30
2024-04-05T15:33:38.179Z,2.90
2024-04-05T15:36:09.593Z,2.50
2024-04-05T15:38:38.561Z,2.30
2024-04-05T15:41:09.192Z,5.20
2024-04-05T15:43:39.800Z,3.40
2024-04-05T15:46:10.423Z,2.70
2024-04-05T15:48:40.805Z,3.40
2024-04-05T15:53:38.349Z,6.10
2024-04-05T15:56:07.066Z,6.40
2024-04-05T15:58:36.584Z,3.40
2024-04-05T16:01:10.876Z,3.50
2024-04-05T16:03:39.921Z,2.90
2024-04-05T16:06:09.323Z,3.90
2024-04-05T16:08:38.178Z,3.70
2024-04-05T16:11:07.458Z,2.30
2024-04-05T16:13:35.998Z,4.70
2024-04-05T16:16:09.366Z,2.60
2024-04-05T16:18:40.158Z,3.00
2024-04-05T16:21:14.025Z,2.70
2024-04-05T16:23:44.975Z,4.60
2024-04-05T16:26:15.485Z,2.90
2024-04-05T16:28:47.054Z,3.30
2024-04-05T16:31:16.818Z,6.30
2024-04-05T16:33:46.613Z,4.20
2024-04-05T16:36:15.203Z,4.30
2024-04-05T16:38:43.811Z,4.50
2024-04-05T16:41:16.160Z,5.90
2024-04-05T16:43:45.140Z,2.30
2024-04-05T16:46:15.966Z,5.10
2024-04-05T16:48:46.384Z,4.70
2024-04-05T16:53:52.344Z,2.40
2024-04-05T16:56:20.885Z,7.20
2024-04-05T16:58:50.013Z,3.80
2024-04-05T17:01:22.242Z,3.40
2024-04-05T17:03:51.482Z,2.50
2024-04-05T17:06:22.683Z,4.10
2024-04-05T17:08:51.991Z,2.90
2024-04-05T17:11:22.617Z,5.20
2024-04-05T17:13:52.371Z,5.20
2024-04-05T17:16:21.024Z,5.30
2024-04-05T17:18:49.541Z,4.40
2024-04-05T17:21:18.840Z,3.10
2024-04-05T17:23:50.133Z,3.80
2024-04-05T17:26:18.664Z,3.80
2024-04-05T17:28:47.162Z,5.20
2024-04-05T17:31:15.689Z,9.10
2024-04-05T17:33:44.270Z,4.30
2024-04-05T17:36:12.963Z,4.70
2024-04-05T17:38:41.832Z,6.80
2024-04-05T17:41:10.457Z,6.00
2024-04-05T17:43:38.956Z,9.70
2024-04-05T17:46:07.421Z,6.50
2024-04-05T17:48:35.876Z,9.50
2024-04-05T17:51:05.714Z,9.90
2024-04-05T17:53:34.264Z,5.20
2024-04-05T17:56:03.263Z,9.20
2024-04-05T17:58:31.742Z,9.30
2024-04-05T18:01:00.232Z,4.70
2024-04-05T18:03:28.845Z,7.80
2024-04-05T18:05:57.375Z,5.80
2024-04-05T18:08:26.053Z,5.70
2024-04-05T18:10:55.402Z,11.10
2024-04-05T18:13:23.891Z,6.10
2024-04-05T18:15:52.413Z,7.70
2024-04-05T18:18:22.391Z,14.10
2024-04-05T18:20:50.905Z,12.60
2024-04-05T18:23:20.559Z,10.10
2024-04-05T18:25:49.477Z,15.30
2024-04-05T18:28:19.507Z,11.10
2024-04-05T18:30:48.036Z,14.40
2024-04-05T18:33:16.855Z,12.00
2024-04-05T18:35:46.195Z,13.80
2024-04-05T18:38:15.446Z,12.10
2024-04-05T18:40:44.053Z,13.50
2024-04-05T18:43:21.253Z,10.80
2024-04-05T18:45:50.398Z,9.80
2024-04-05T18:48:19.359Z,15.40
2024-04-05T18:50:50.525Z,13.10
2024-04-05T18:53:19.744Z,14.90
2024-04-05T18:55:50.140Z,14.20
2024-04-05T18:58:25.191Z,14.00
2024-04-05T19:00:53.710Z,17.50
2024-04-05T19:03:31.307Z,14.80
2024-04-05T19:06:00.201Z,14.40
2024-04-05T19:08:30.747Z,13.70
2024-04-05T19:13:35.376Z,9.50
2024-04-05T19:16:08.196Z,10.10
2024-04-05T19:18:38.442Z,10.00
2024-04-05T19:21:08.223Z,8.40
2024-04-05T19:23:36.759Z,10.70
2024-04-05T19:26:05.610Z,9.30
2024-04-05T19:28:34.296Z,7.60
2024-04-05T19:31:02.960Z,10.50
2024-04-05T19:33:31.836Z,10.70
2024-04-05T19:36:00.354Z,8.70
2024-04-05T19:38:30.067Z,9.90
2024-04-05T19:41:01.206Z,10.10
2024-04-05T19:43:29.702Z,8.90
2024-04-05T19:45:58.417Z,7.80
2024-04-05T19:48:26.914Z,10.80
2024-04-05T19:50:55.530Z,8.30
2024-04-05T19:53:24.018Z,9.40
2024-04-05T19:55:52.470Z,8.60
2024-04-05T19:58:29.260Z,7.20
2024-04-05T20:00:59.999Z,7.90
2024-04-05T20:03:29.445Z,9.10
2024-04-05T20:06:00.673Z,10.90
2024-04-05T20:08:29.323Z,9.10
2024-04-05T20:10:57.840Z,7.90
2024-04-05T20:13:26.378Z,6.50
2024-04-05T20:15:54.889Z,10.20
2024-04-05T20:18:23.441Z,9.50
2024-04-05T20:20:52.244Z,7.30
2024-04-05T20:23:20.821Z,6.80
2024-04-05T20:25:49.357Z,10.30
2024-04-05T20:28:38.848Z,8.10
2024-04-05T20:31:24.720Z,7.00
2024-04-05T20:33:53.979Z,5.60
2024-04-05T20:36:22.488Z,8.00
2024-04-05T20:38:51.089Z,8.40
2024-04-05T20:41:19.978Z,8.20
2024-04-05T20:43:48.685Z,7.40
2024-04-05T20:46:17.459Z,9.60
2024-04-05T20:48:45.904Z,8.90
2024-04-05T20:51:15.826Z,9.10
2024-04-05T20:53:44.992Z,8.90
2024-04-05T20:56:13.567Z,13.60
2024-04-05T20:58:42.050Z,9.80
2024-04-05T21:01:11.084Z,9.90
2024-04-05T21:03:39.666Z,10.80
2024-04-05T21:06:08.187Z,11.50
2024-04-05T21:08:36.640Z,9.40
2024-04-05T21:11:05.315Z,7.70
2024-04-05T21:13:33.919Z,8.90
2024-04-05T21:16:02.405Z,6.70
2024-04-05T21:18:30.907Z,7.60
2024-04-05T21:20:59.542Z,8.10
2024-04-05T21:23:28.022Z,8.50
2024-04-05T21:25:57.351Z,9.70
2024-04-05T21:28:25.826Z,9.70
2024-04-05T21:30:54.955Z,7.50
2024-04-05T21:33:23.474Z,6.90
2024-04-05T21:35:54.224Z,8.50
2024-04-05T21:38:22.761Z,11.40
2024-04-05T21:40:51.300Z,8.20
2024-04-05T21:43:19.782Z,7.30
2024-04-05T21:45:48.366Z,8.40
2024-04-05T21:48:16.907Z,7.90
2024-04-05T21:53:17.042Z,9.40
2024-04-05T21:55:45.535Z,10.90
2024-04-05T21:58:14.330Z,11.70
2024-04-05T22:00:42.913Z,10.10
2024-04-05T22:03:11.849Z,8.00
2024-04-05T22:05:40.397Z,9.20
2024-04-05T22:08:09.342Z,8.90
2024-04-05T22:10:37.817Z,8.40
2024-04-05T22:13:06.314Z,10.20
2024-04-05T22:15:34.785Z,10.60
2024-04-05T22:18:03.386Z,8.60
2024-04-05T22:20:31.863Z,10.10
2024-04-05T22:23:00.350Z,10.40
2024-04-05T22:25:28.905Z,10.10
2024-04-05T22:27:57.391Z,8.70
2024-04-05T22:30:27.552Z,11.90
2024-04-05T22:32:56.006Z,11.40
2024-04-05T22:35:24.684Z,11.30
2024-04-05T22:37:53.220Z,9.80
2024-04-05T22:40:21.729Z,10.10
2024-04-05T22:42:50.178Z,11.60
2024-04-05T22:45:18.741Z,10.60
2024-04-05T22:47:47.638Z,9.60
2024-04-05T22:50:16.265Z,11.30
2024-04-05T22:52:45.397Z,11.30
2024-04-05T22:55:15.573Z,9.00
2024-04-05T22:57:44.212Z,13.50
2024-04-05T23:00:13.859Z,12.40
2024-04-05T23:02:42.761Z,8.80
2024-04-05T23:05:11.278Z,10.90
2024-04-05T23:07:39.838Z,13.30
2024-04-05T23:10:08.456Z,12.00
2024-04-05T23:12:37.133Z,11.60
2024-04-05T23:15:05.781Z,9.50
2024-04-05T23:17:34.257Z,11.70
2024-04-05T23:20:02.980Z,9.30
2024-04-05T23:22:33.905Z,11.80
2024-04-05T23:25:02.760Z,11.40
2024-04-05T23:27:31.222Z,12.40
2024-04-05T23:29:59.695Z,12.30
2024-04-05T23:32:28.276Z,14.40
2024-04-05T23:34:56.810Z,12.00
2024-04-05T23:37:25.290Z,13.60
2024-04-05T23:39:53.748Z,15.10
2024-04-05T23:42:22.198Z,16.20
2024-04-05T23:44:50.663Z,13.10
2024-04-05T23:47:19.158Z,16.70
2024-04-05T23:49:47.617Z,16.30
2024-04-05T23:52:16.081Z,13.20
2024-04-05T23:54:44.575Z,13.70
2024-04-05T23:57:13.298Z,15.80
2024-04-05T23:59:41.872Z,13.10
